sensor_id;sensor_type;location;lat;lon;timestamp;temperature;humidity
20672;DHT22;10495;50.922;4.760;2023-03-24T00:02:05;13.90;92.40
20672;DHT22;10495;50.922;4.760;2023-03-24T00:04:32;13.80;92.50
20672;DHT22;10495;50.922;4.760;2023-03-24T00:06:59;13.80;92.60
20672;DHT22;10495;50.922;4.760;2023-03-24T00:09:29;13.80;92.60
20672;DHT22;10495;50.922;4.760;2023-03-24T00:11:56;13.90;92.50
20672;DHT22;10495;50.922;4.760;2023-03-24T00:14:22;14.00;92.40
20672;DHT22;10495;50.922;4.760;2023-03-24T00:16:48;14.10;92.20
20672;DHT22;10495;50.922;4.760;2023-03-24T00:19:15;14.10;92.10
20672;DHT22;10495;50.922;4.760;2023-03-24T00:21:42;13.90;92.50
20672;DHT22;10495;50.922;4.760;2023-03-24T00:24:09;14.10;92.20
20672;DHT22;10495;50.922;4.760;2023-03-24T00:26:37;14.00;92.40
20672;DHT22;10495;50.922;4.760;2023-03-24T00:29:05;14.00;92.40
20672;DHT22;10495;50.922;4.760;2023-03-24T00:31:31;14.00;92.10
20672;DHT22;10495;50.922;4.760;2023-03-24T00:33:58;14.00;92.40
20672;DHT22;10495;50.922;4.760;2023-03-24T00:36:27;13.90;92.50
20672;DHT22;10495;50.922;4.760;2023-03-24T00:38:54;14.00;92.40
20672;DHT22;10495;50.922;4.760;2023-03-24T00:41:19;13.80;92.70
20672;DHT22;10495;50.922;4.760;2023-03-24T00:43:47;14.00;92.30
20672;DHT22;10495;50.922;4.760;2023-03-24T00:46:14;14.00;92.70
20672;DHT22;10495;50.922;4.760;2023-03-24T00:48:52;14.00;92.50
20672;DHT22;10495;50.922;4.760;2023-03-24T00:51:23;14.00;92.30
20672;DHT22;10495;50.922;4.760;2023-03-24T00:53:49;13.90;92.50
20672;DHT22;10495;50.922;4.760;2023-03-24T00:56:14;14.10;92.30
20672;DHT22;10495;50.922;4.760;2023-03-24T00:58:40;14.10;92.30
20672;DHT22;10495;50.922;4.760;2023-03-24T01:01:06;14.10;92.40
20672;DHT22;10495;50.922;4.760;2023-03-24T01:03:32;14.00;92.30
20672;DHT22;10495;50.922;4.760;2023-03-24T01:06:02;14.00;92.40
20672;DHT22;10495;50.922;4.760;2023-03-24T01:08:27;14.00;92.50
20672;DHT22;10495;50.922;4.760;2023-03-24T01:10:54;14.20;92.40
20672;DHT22;10495;50.922;4.760;2023-03-24T01:13:25;14.40;92.00
20672;DHT22;10495;50.922;4.760;2023-03-24T01:15:51;14.30;91.90
20672;DHT22;10495;50.922;4.760;2023-03-24T01:18:17;14.30;92.00
20672;DHT22;10495;50.922;4.760;2023-03-24T01:20:45;14.10;92.30
20672;DHT22;10495;50.922;4.760;2023-03-24T01:23:13;14.00;92.70
20672;DHT22;10495;50.922;4.760;2023-03-24T01:25:40;14.10;92.70
20672;DHT22;10495;50.922;4.760;2023-03-24T01:28:10;14.00;92.60
20672;DHT22;10495;50.922;4.760;2023-03-24T01:30:36;14.00;92.60
20672;DHT22;10495;50.922;4.760;2023-03-24T01:33:02;14.00;92.50
20672;DHT22;10495;50.922;4.760;2023-03-24T01:35:27;14.10;92.60
20672;DHT22;10495;50.922;4.760;2023-03-24T01:37:53;14.20;92.20
20672;DHT22;10495;50.922;4.760;2023-03-24T01:40:23;14.30;92.00
20672;DHT22;10495;50.922;4.760;2023-03-24T01:42:49;14.30;91.80
20672;DHT22;10495;50.922;4.760;2023-03-24T01:48:10;14.50;91.50
20672;DHT22;10495;50.922;4.760;2023-03-24T01:50:36;14.50;91.30
20672;DHT22;10495;50.922;4.760;2023-03-24T01:53:02;14.50;91.50
20672;DHT22;10495;50.922;4.760;2023-03-24T01:55:30;14.60;91.30
20672;DHT22;10495;50.922;4.760;2023-03-24T01:57:59;14.70;91.30
20672;DHT22;10495;50.922;4.760;2023-03-24T02:00:26;14.80;91.10
20672;DHT22;10495;50.922;4.760;2023-03-24T02:02:56;14.90;90.80
20672;DHT22;10495;50.922;4.760;2023-03-24T02:05:25;14.90;90.70
20672;DHT22;10495;50.922;4.760;2023-03-24T02:10:43;14.80;90.70
20672;DHT22;10495;50.922;4.760;2023-03-24T02:13:09;14.70;91.00
20672;DHT22;10495;50.922;4.760;2023-03-24T02:15:48;14.70;90.90
20672;DHT22;10495;50.922;4.760;2023-03-24T02:32:22;15.20;90.10
20672;DHT22;10495;50.922;4.760;2023-03-24T02:45:40;14.90;90.10
20672;DHT22;10495;50.922;4.760;2023-03-24T02:48:30;15.10;89.10
20672;DHT22;10495;50.922;4.760;2023-03-24T02:51:10;14.90;89.40
20672;DHT22;10495;50.922;4.760;2023-03-24T02:54:16;14.60;85.90
20672;DHT22;10495;50.922;4.760;2023-03-24T02:59:45;14.40;84.00
20672;DHT22;10495;50.922;4.760;2023-03-24T03:02:21;14.30;84.10
20672;DHT22;10495;50.922;4.760;2023-03-24T03:04:54;14.30;82.70
20672;DHT22;10495;50.922;4.760;2023-03-24T03:07:24;14.10;82.20
20672;DHT22;10495;50.922;4.760;2023-03-24T03:09:57;13.90;83.20
20672;DHT22;10495;50.922;4.760;2023-03-24T03:12:26;13.60;84.00
20672;DHT22;10495;50.922;4.760;2023-03-24T03:15:00;13.60;84.00
20672;DHT22;10495;50.922;4.760;2023-03-24T03:17:32;13.80;83.40
20672;DHT22;10495;50.922;4.760;2023-03-24T03:20:02;13.60;83.80
20672;DHT22;10495;50.922;4.760;2023-03-24T03:22:37;13.70;83.40
20672;DHT22;10495;50.922;4.760;2023-03-24T03:25:08;13.50;84.40
20672;DHT22;10495;50.922;4.760;2023-03-24T03:27:36;13.40;84.80
20672;DHT22;10495;50.922;4.760;2023-03-24T03:30:36;13.40;84.80
20672;DHT22;10495;50.922;4.760;2023-03-24T03:33:28;13.30;85.20
20672;DHT22;10495;50.922;4.760;2023-03-24T03:41:27;13.40;83.70
20672;DHT22;10495;50.922;4.760;2023-03-24T03:43:52;13.20;83.50
20672;DHT22;10495;50.922;4.760;2023-03-24T03:46:19;13.00;84.20
20672;DHT22;10495;50.922;4.760;2023-03-24T03:48:45;13.10;84.00
20672;DHT22;10495;50.922;4.760;2023-03-24T03:51:12;13.00;84.40
20672;DHT22;10495;50.922;4.760;2023-03-24T03:53:51;12.90;84.90
20672;DHT22;10495;50.922;4.760;2023-03-24T03:56:31;12.80;85.20
20672;DHT22;10495;50.922;4.760;2023-03-24T03:58:57;13.00;84.60
20672;DHT22;10495;50.922;4.760;2023-03-24T04:01:26;12.90;84.70
20672;DHT22;10495;50.922;4.760;2023-03-24T04:07:21;12.80;84.90
20672;DHT22;10495;50.922;4.760;2023-03-24T04:10:13;12.60;85.50
20672;DHT22;10495;50.922;4.760;2023-03-24T04:13:03;12.80;85.10
20672;DHT22;10495;50.922;4.760;2023-03-24T04:15:45;12.60;85.90
20672;DHT22;10495;50.922;4.760;2023-03-24T04:18:43;12.60;86.10
20672;DHT22;10495;50.922;4.760;2023-03-24T04:27:08;12.80;84.50
20672;DHT22;10495;50.922;4.760;2023-03-24T04:29:48;12.80;83.80
20672;DHT22;10495;50.922;4.760;2023-03-24T04:32:26;12.90;83.80
20672;DHT22;10495;50.922;4.760;2023-03-24T04:34:56;12.90;84.10
20672;DHT22;10495;50.922;4.760;2023-03-24T04:37:31;12.90;84.20
20672;DHT22;10495;50.922;4.760;2023-03-24T04:40:00;12.90;83.90
20672;DHT22;10495;50.922;4.760;2023-03-24T04:42:47;12.90;83.70
20672;DHT22;10495;50.922;4.760;2023-03-24T04:45:17;12.80;83.90
20672;DHT22;10495;50.922;4.760;2023-03-24T04:47:51;12.80;84.60
20672;DHT22;10495;50.922;4.760;2023-03-24T04:50:34;12.70;84.40
20672;DHT22;10495;50.922;4.760;2023-03-24T04:53:02;12.60;84.70
20672;DHT22;10495;50.922;4.760;2023-03-24T04:55:49;12.80;84.10
20672;DHT22;10495;50.922;4.760;2023-03-24T04:58:20;12.90;84.10
20672;DHT22;10495;50.922;4.760;2023-03-24T05:00:46;12.80;84.40
20672;DHT22;10495;50.922;4.760;2023-03-24T05:03:13;12.80;84.40
20672;DHT22;10495;50.922;4.760;2023-03-24T05:05:42;12.60;84.80
20672;DHT22;10495;50.922;4.760;2023-03-24T05:08:08;12.60;84.40
20672;DHT22;10495;50.922;4.760;2023-03-24T05:10:35;12.60;84.20
20672;DHT22;10495;50.922;4.760;2023-03-24T05:13:02;12.60;83.90
20672;DHT22;10495;50.922;4.760;2023-03-24T05:15:28;12.70;83.90
20672;DHT22;10495;50.922;4.760;2023-03-24T05:17:54;12.60;83.80
20672;DHT22;10495;50.922;4.760;2023-03-24T05:20:20;12.60;84.10
20672;DHT22;10495;50.922;4.760;2023-03-24T05:22:45;12.60;83.60
20672;DHT22;10495;50.922;4.760;2023-03-24T05:25:11;12.40;84.00
20672;DHT22;10495;50.922;4.760;2023-03-24T05:27:37;12.40;83.60
20672;DHT22;10495;50.922;4.760;2023-03-24T05:30:06;12.20;83.90
20672;DHT22;10495;50.922;4.760;2023-03-24T05:32:32;12.60;83.20
20672;DHT22;10495;50.922;4.760;2023-03-24T05:34:57;12.40;83.00
20672;DHT22;10495;50.922;4.760;2023-03-24T05:37:23;12.20;83.50
20672;DHT22;10495;50.922;4.760;2023-03-24T05:39:49;12.10;84.40
20672;DHT22;10495;50.922;4.760;2023-03-24T05:42:15;11.90;84.60
20672;DHT22;10495;50.922;4.760;2023-03-24T05:44:41;11.80;84.80
20672;DHT22;10495;50.922;4.760;2023-03-24T05:47:07;11.80;85.20
20672;DHT22;10495;50.922;4.760;2023-03-24T05:49:33;11.80;85.00
20672;DHT22;10495;50.922;4.760;2023-03-24T05:51:58;11.90;84.70
20672;DHT22;10495;50.922;4.760;2023-03-24T05:54:24;12.20;84.30
20672;DHT22;10495;50.922;4.760;2023-03-24T05:56:50;11.90;84.10
20672;DHT22;10495;50.922;4.760;2023-03-24T05:59:16;11.70;85.30
20672;DHT22;10495;50.922;4.760;2023-03-24T06:01:42;11.80;85.20
20672;DHT22;10495;50.922;4.760;2023-03-24T06:04:08;11.70;85.30
20672;DHT22;10495;50.922;4.760;2023-03-24T06:06:34;11.70;85.50
20672;DHT22;10495;50.922;4.760;2023-03-24T06:08:59;11.80;85.40
20672;DHT22;10495;50.922;4.760;2023-03-24T06:11:29;11.80;85.40
20672;DHT22;10495;50.922;4.760;2023-03-24T06:13:55;11.60;86.30
20672;DHT22;10495;50.922;4.760;2023-03-24T06:16:27;11.60;86.30
20672;DHT22;10495;50.922;4.760;2023-03-24T06:18:53;11.70;86.40
20672;DHT22;10495;50.922;4.760;2023-03-24T06:21:19;11.80;86.30
20672;DHT22;10495;50.922;4.760;2023-03-24T06:23:45;11.90;86.00
20672;DHT22;10495;50.922;4.760;2023-03-24T06:26:12;12.00;85.70
20672;DHT22;10495;50.922;4.760;2023-03-24T06:28:39;12.00;85.80
20672;DHT22;10495;50.922;4.760;2023-03-24T06:31:07;12.00;86.00
20672;DHT22;10495;50.922;4.760;2023-03-24T06:33:42;12.20;85.90
20672;DHT22;10495;50.922;4.760;2023-03-24T06:36:09;12.20;85.10
20672;DHT22;10495;50.922;4.760;2023-03-24T06:38:35;12.30;84.90
20672;DHT22;10495;50.922;4.760;2023-03-24T06:41:02;12.30;85.30
20672;DHT22;10495;50.922;4.760;2023-03-24T06:43:28;12.60;85.20
20672;DHT22;10495;50.922;4.760;2023-03-24T06:45:54;12.70;84.90
20672;DHT22;10495;50.922;4.760;2023-03-24T06:48:20;13.00;83.50
20672;DHT22;10495;50.922;4.760;2023-03-24T06:50:46;13.20;82.50
20672;DHT22;10495;50.922;4.760;2023-03-24T06:53:11;13.40;82.60
20672;DHT22;10495;50.922;4.760;2023-03-24T06:55:37;13.70;81.80
20672;DHT22;10495;50.922;4.760;2023-03-24T06:58:04;13.70;81.40
20672;DHT22;10495;50.922;4.760;2023-03-24T07:00:29;13.70;80.30
20672;DHT22;10495;50.922;4.760;2023-03-24T07:02:55;13.70;80.10
20672;DHT22;10495;50.922;4.760;2023-03-24T07:05:21;13.50;80.30
20672;DHT22;10495;50.922;4.760;2023-03-24T07:07:48;13.40;80.80
20672;DHT22;10495;50.922;4.760;2023-03-24T07:10:14;13.50;80.80
20672;DHT22;10495;50.922;4.760;2023-03-24T07:12:41;13.70;80.60
20672;DHT22;10495;50.922;4.760;2023-03-24T07:15:07;14.00;79.80
20672;DHT22;10495;50.922;4.760;2023-03-24T07:17:33;14.20;79.70
20672;DHT22;10495;50.922;4.760;2023-03-24T07:19:59;14.40;79.10
20672;DHT22;10495;50.922;4.760;2023-03-24T07:22:25;14.60;78.10
20672;DHT22;10495;50.922;4.760;2023-03-24T07:24:51;14.80;78.00
20672;DHT22;10495;50.922;4.760;2023-03-24T07:27:16;15.30;77.40
20672;DHT22;10495;50.922;4.760;2023-03-24T07:29:42;15.80;76.70
20672;DHT22;10495;50.922;4.760;2023-03-24T07:32:08;16.30;76.00
20672;DHT22;10495;50.922;4.760;2023-03-24T07:34:34;16.70;72.50
20672;DHT22;10495;50.922;4.760;2023-03-24T07:37:01;16.90;70.90
20672;DHT22;10495;50.922;4.760;2023-03-24T07:39:27;16.80;70.70
20672;DHT22;10495;50.922;4.760;2023-03-24T07:41:52;17.00;71.40
20672;DHT22;10495;50.922;4.760;2023-03-24T07:44:18;17.00;70.10
20672;DHT22;10495;50.922;4.760;2023-03-24T07:46:44;17.00;70.80
20672;DHT22;10495;50.922;4.760;2023-03-24T07:49:10;17.20;71.80
20672;DHT22;10495;50.922;4.760;2023-03-24T07:51:36;17.60;69.00
20672;DHT22;10495;50.922;4.760;2023-03-24T07:54:02;17.80;69.40
20672;DHT22;10495;50.922;4.760;2023-03-24T07:56:27;17.90;67.50
20672;DHT22;10495;50.922;4.760;2023-03-24T07:58:56;18.10;67.60
20672;DHT22;10495;50.922;4.760;2023-03-24T08:01:22;17.80;67.90
20672;DHT22;10495;50.922;4.760;2023-03-24T08:03:47;17.50;66.70
20672;DHT22;10495;50.922;4.760;2023-03-24T08:06:18;17.10;67.30
20672;DHT22;10495;50.922;4.760;2023-03-24T08:08:44;17.00;68.70
20672;DHT22;10495;50.922;4.760;2023-03-24T08:11:10;16.70;69.70
20672;DHT22;10495;50.922;4.760;2023-03-24T08:13:35;16.80;69.10
20672;DHT22;10495;50.922;4.760;2023-03-24T08:16:01;16.80;68.80
20672;DHT22;10495;50.922;4.760;2023-03-24T08:18:28;16.50;69.40
20672;DHT22;10495;50.922;4.760;2023-03-24T08:20:57;16.40;69.10
20672;DHT22;10495;50.922;4.760;2023-03-24T08:23:23;16.50;68.40
20672;DHT22;10495;50.922;4.760;2023-03-24T08:25:49;17.00;67.50
20672;DHT22;10495;50.922;4.760;2023-03-24T08:28:15;17.50;67.50
20672;DHT22;10495;50.922;4.760;2023-03-24T08:30:41;17.80;66.90
20672;DHT22;10495;50.922;4.760;2023-03-24T08:33:17;18.20;66.30
20672;DHT22;10495;50.922;4.760;2023-03-24T08:35:42;18.30;64.90
20672;DHT22;10495;50.922;4.760;2023-03-24T08:38:10;18.40;64.10
20672;DHT22;10495;50.922;4.760;2023-03-24T08:40:38;18.30;63.30
20672;DHT22;10495;50.922;4.760;2023-03-24T08:43:06;18.20;64.90
20672;DHT22;10495;50.922;4.760;2023-03-24T08:45:35;18.40;63.70
20672;DHT22;10495;50.922;4.760;2023-03-24T08:48:03;18.60;64.50
20672;DHT22;10495;50.922;4.760;2023-03-24T08:50:33;18.70;62.00
20672;DHT22;10495;50.922;4.760;2023-03-24T08:53:00;18.60;62.70
20672;DHT22;10495;50.922;4.760;2023-03-24T08:55:26;18.50;61.60
20672;DHT22;10495;50.922;4.760;2023-03-24T08:57:52;18.10;63.20
20672;DHT22;10495;50.922;4.760;2023-03-24T09:00:18;17.70;63.30
20672;DHT22;10495;50.922;4.760;2023-03-24T09:02:48;17.60;64.10
20672;DHT22;10495;50.922;4.760;2023-03-24T09:05:15;17.20;64.40
20672;DHT22;10495;50.922;4.760;2023-03-24T09:07:43;17.10;65.90
20672;DHT22;10495;50.922;4.760;2023-03-24T09:10:10;17.00;64.90
20672;DHT22;10495;50.922;4.760;2023-03-24T09:12:36;16.90;65.50
20672;DHT22;10495;50.922;4.760;2023-03-24T09:15:04;17.20;65.90
20672;DHT22;10495;50.922;4.760;2023-03-24T09:17:30;17.40;66.10
20672;DHT22;10495;50.922;4.760;2023-03-24T09:19:56;17.70;66.80
20672;DHT22;10495;50.922;4.760;2023-03-24T09:22:22;18.20;64.70
20672;DHT22;10495;50.922;4.760;2023-03-24T09:24:48;18.70;64.10
20672;DHT22;10495;50.922;4.760;2023-03-24T09:27:14;18.80;63.70
20672;DHT22;10495;50.922;4.760;2023-03-24T09:29:41;18.90;62.90
20672;DHT22;10495;50.922;4.760;2023-03-24T09:32:07;19.00;62.00
20672;DHT22;10495;50.922;4.760;2023-03-24T09:34:32;19.20;61.60
20672;DHT22;10495;50.922;4.760;2023-03-24T09:36:59;19.30;59.60
20672;DHT22;10495;50.922;4.760;2023-03-24T09:39:25;18.90;60.90
20672;DHT22;10495;50.922;4.760;2023-03-24T09:41:53;18.80;59.80
20672;DHT22;10495;50.922;4.760;2023-03-24T09:47:22;18.50;61.40
20672;DHT22;10495;50.922;4.760;2023-03-24T09:49:46;18.30;61.20
20672;DHT22;10495;50.922;4.760;2023-03-24T09:52:15;18.20;62.60
20672;DHT22;10495;50.922;4.760;2023-03-24T09:54:54;18.70;61.90
20672;DHT22;10495;50.922;4.760;2023-03-24T09:57:38;18.70;59.50
20672;DHT22;10495;50.922;4.760;2023-03-24T10:00:27;18.80;58.80
20672;DHT22;10495;50.922;4.760;2023-03-24T10:02:58;18.40;59.90
20672;DHT22;10495;50.922;4.760;2023-03-24T10:05:33;18.30;59.70
20672;DHT22;10495;50.922;4.760;2023-03-24T10:08:16;18.50;60.60
20672;DHT22;10495;50.922;4.760;2023-03-24T10:11:18;18.60;59.90
20672;DHT22;10495;50.922;4.760;2023-03-24T10:17:02;18.40;60.20
20672;DHT22;10495;50.922;4.760;2023-03-24T10:19:39;18.30;59.90
20672;DHT22;10495;50.922;4.760;2023-03-24T10:27:59;17.90;61.00
20672;DHT22;10495;50.922;4.760;2023-03-24T10:30:30;17.70;60.10
20672;DHT22;10495;50.922;4.760;2023-03-24T10:32:57;17.60;60.70
20672;DHT22;10495;50.922;4.760;2023-03-24T10:38:17;17.70;62.30
20672;DHT22;10495;50.922;4.760;2023-03-24T10:40:44;17.50;63.70
20672;DHT22;10495;50.922;4.760;2023-03-24T10:43:11;17.70;63.70
20672;DHT22;10495;50.922;4.760;2023-03-24T10:45:40;17.60;63.20
20672;DHT22;10495;50.922;4.760;2023-03-24T10:48:08;17.20;62.90
20672;DHT22;10495;50.922;4.760;2023-03-24T10:50:41;17.10;63.90
20672;DHT22;10495;50.922;4.760;2023-03-24T10:53:10;16.90;64.00
20672;DHT22;10495;50.922;4.760;2023-03-24T10:55:40;17.10;63.20
20672;DHT22;10495;50.922;4.760;2023-03-24T10:58:26;17.20;63.80
20672;DHT22;10495;50.922;4.760;2023-03-24T11:00:54;16.80;64.50
20672;DHT22;10495;50.922;4.760;2023-03-24T11:03:26;16.70;65.40
20672;DHT22;10495;50.922;4.760;2023-03-24T11:05:58;16.60;65.60
20672;DHT22;10495;50.922;4.760;2023-03-24T11:08:36;16.80;66.10
20672;DHT22;10495;50.922;4.760;2023-03-24T11:11:30;16.90;65.90
20672;DHT22;10495;50.922;4.760;2023-03-24T11:14:00;17.40;65.10
20672;DHT22;10495;50.922;4.760;2023-03-24T11:16:37;17.30;62.90
20672;DHT22;10495;50.922;4.760;2023-03-24T11:19:21;17.00;63.70
20672;DHT22;10495;50.922;4.760;2023-03-24T11:21:48;17.00;65.30
20672;DHT22;10495;50.922;4.760;2023-03-24T11:24:16;17.40;64.00
20672;DHT22;10495;50.922;4.760;2023-03-24T11:26:56;17.30;62.50
20672;DHT22;10495;50.922;4.760;2023-03-24T11:29:25;17.40;62.50
20672;DHT22;10495;50.922;4.760;2023-03-24T11:31:57;17.60;61.10
20672;DHT22;10495;50.922;4.760;2023-03-24T11:34:27;17.50;62.00
20672;DHT22;10495;50.922;4.760;2023-03-24T11:37:00;17.30;61.50
20672;DHT22;10495;50.922;4.760;2023-03-24T11:39:31;17.10;61.20
20672;DHT22;10495;50.922;4.760;2023-03-24T11:42:04;17.10;62.90
20672;DHT22;10495;50.922;4.760;2023-03-24T11:44:49;17.10;62.40
20672;DHT22;10495;50.922;4.760;2023-03-24T11:49:45;17.40;62.20
20672;DHT22;10495;50.922;4.760;2023-03-24T11:52:23;17.40;62.40
20672;DHT22;10495;50.922;4.760;2023-03-24T11:54:52;17.30;61.40
20672;DHT22;10495;50.922;4.760;2023-03-24T11:57:39;17.40;62.40
20672;DHT22;10495;50.922;4.760;2023-03-24T12:00:19;17.70;62.00
20672;DHT22;10495;50.922;4.760;2023-03-24T12:05:57;17.60;61.90
20672;DHT22;10495;50.922;4.760;2023-03-24T12:13:38;17.80;62.00
20672;DHT22;10495;50.922;4.760;2023-03-24T12:22:12;17.80;60.80
20672;DHT22;10495;50.922;4.760;2023-03-24T12:25:18;18.00;60.60
20672;DHT22;10495;50.922;4.760;2023-03-24T12:36:43;17.70;61.10
20672;DHT22;10495;50.922;4.760;2023-03-24T12:39:01;17.50;60.90
20672;DHT22;10495;50.922;4.760;2023-03-24T12:44:37;17.20;62.00
20672;DHT22;10495;50.922;4.760;2023-03-24T12:55:32;17.10;63.30
20672;DHT22;10495;50.922;4.760;2023-03-24T13:01:12;17.20;62.20
20672;DHT22;10495;50.922;4.760;2023-03-24T13:03:46;17.40;62.30
20672;DHT22;10495;50.922;4.760;2023-03-24T13:06:29;17.70;63.20
20672;DHT22;10495;50.922;4.760;2023-03-24T13:12:26;18.00;60.90
20672;DHT22;10495;50.922;4.760;2023-03-24T13:17:40;17.70;61.40
20672;DHT22;10495;50.922;4.760;2023-03-24T13:20:12;17.80;59.90
20672;DHT22;10495;50.922;4.760;2023-03-24T13:22:39;17.70;59.80
20672;DHT22;10495;50.922;4.760;2023-03-24T13:25:16;17.30;62.20
20672;DHT22;10495;50.922;4.760;2023-03-24T13:27:49;17.20;66.20
20672;DHT22;10495;50.922;4.760;2023-03-24T13:32:55;16.90;68.40
20672;DHT22;10495;50.922;4.760;2023-03-24T13:35:36;17.00;66.60
20672;DHT22;10495;50.922;4.760;2023-03-24T13:38:17;16.70;67.10
20672;DHT22;10495;50.922;4.760;2023-03-24T13:40:48;16.70;67.90
20672;DHT22;10495;50.922;4.760;2023-03-24T13:43:21;16.50;69.30
20672;DHT22;10495;50.922;4.760;2023-03-24T13:45:49;15.60;73.30
20672;DHT22;10495;50.922;4.760;2023-03-24T13:48:34;15.20;75.80
20672;DHT22;10495;50.922;4.760;2023-03-24T13:51:13;14.90;76.90
20672;DHT22;10495;50.922;4.760;2023-03-24T13:56:37;15.10;76.00
20672;DHT22;10495;50.922;4.760;2023-03-24T14:02:50;14.90;77.90
20672;DHT22;10495;50.922;4.760;2023-03-24T14:07:44;15.30;78.30
20672;DHT22;10495;50.922;4.760;2023-03-24T14:25:55;15.70;76.80
20672;DHT22;10495;50.922;4.760;2023-03-24T14:28:37;15.50;76.20
20672;DHT22;10495;50.922;4.760;2023-03-24T14:36:35;15.50;75.50
20672;DHT22;10495;50.922;4.760;2023-03-24T14:41:47;15.80;74.90
20672;DHT22;10495;50.922;4.760;2023-03-24T14:47:21;15.80;75.80
20672;DHT22;10495;50.922;4.760;2023-03-24T14:49:50;15.80;75.00
20672;DHT22;10495;50.922;4.760;2023-03-24T14:52:24;16.00;75.40
20672;DHT22;10495;50.922;4.760;2023-03-24T14:55:13;16.00;75.80
20672;DHT22;10495;50.922;4.760;2023-03-24T14:58:08;16.10;75.40
20672;DHT22;10495;50.922;4.760;2023-03-24T15:00:41;16.40;75.40
20672;DHT22;10495;50.922;4.760;2023-03-24T15:06:13;16.50;72.90
20672;DHT22;10495;50.922;4.760;2023-03-24T15:08:44;16.60;72.80
20672;DHT22;10495;50.922;4.760;2023-03-24T15:11:10;16.70;71.70
20672;DHT22;10495;50.922;4.760;2023-03-24T15:13:59;16.50;71.70
20672;DHT22;10495;50.922;4.760;2023-03-24T15:16:27;16.70;69.20
20672;DHT22;10495;50.922;4.760;2023-03-24T15:18:58;16.70;68.30
20672;DHT22;10495;50.922;4.760;2023-03-24T15:21:28;16.60;67.60
20672;DHT22;10495;50.922;4.760;2023-03-24T15:23:55;16.60;67.80
20672;DHT22;10495;50.922;4.760;2023-03-24T15:26:22;16.70;66.80
20672;DHT22;10495;50.922;4.760;2023-03-24T15:29:14;16.60;66.60
20672;DHT22;10495;50.922;4.760;2023-03-24T15:31:40;16.50;65.80
20672;DHT22;10495;50.922;4.760;2023-03-24T15:36:37;16.00;64.50
20672;DHT22;10495;50.922;4.760;2023-03-24T15:39:19;15.90;65.90
20672;DHT22;10495;50.922;4.760;2023-03-24T15:41:45;16.00;65.70
20672;DHT22;10495;50.922;4.760;2023-03-24T15:44:18;16.20;65.40
20672;DHT22;10495;50.922;4.760;2023-03-24T15:46:45;16.10;65.00
20672;DHT22;10495;50.922;4.760;2023-03-24T15:49:23;16.00;64.20
20672;DHT22;10495;50.922;4.760;2023-03-24T15:51:51;16.10;65.10
20672;DHT22;10495;50.922;4.760;2023-03-24T15:54:35;16.40;64.30
20672;DHT22;10495;50.922;4.760;2023-03-24T15:57:11;16.30;64.40
20672;DHT22;10495;50.922;4.760;2023-03-24T16:00:05;16.30;64.50
20672;DHT22;10495;50.922;4.760;2023-03-24T16:02:35;16.20;64.20
20672;DHT22;10495;50.922;4.760;2023-03-24T16:05:12;16.20;64.10
20672;DHT22;10495;50.922;4.760;2023-03-24T16:07:40;16.10;65.10
20672;DHT22;10495;50.922;4.760;2023-03-24T16:10:23;15.90;65.40
20672;DHT22;10495;50.922;4.760;2023-03-24T16:12:50;15.60;67.80
20672;DHT22;10495;50.922;4.760;2023-03-24T16:15:16;15.80;67.20
20672;DHT22;10495;50.922;4.760;2023-03-24T16:17:42;16.00;67.10
20672;DHT22;10495;50.922;4.760;2023-03-24T16:20:18;15.90;67.10
20672;DHT22;10495;50.922;4.760;2023-03-24T16:22:44;15.90;66.40
20672;DHT22;10495;50.922;4.760;2023-03-24T16:25:11;15.70;67.70
20672;DHT22;10495;50.922;4.760;2023-03-24T16:27:38;15.50;68.50
20672;DHT22;10495;50.922;4.760;2023-03-24T16:30:24;15.40;68.80
20672;DHT22;10495;50.922;4.760;2023-03-24T16:32:50;15.40;69.20
20672;DHT22;10495;50.922;4.760;2023-03-24T16:35:16;15.40;68.70
20672;DHT22;10495;50.922;4.760;2023-03-24T16:37:42;15.30;68.90
20672;DHT22;10495;50.922;4.760;2023-03-24T16:40:33;15.40;68.20
20672;DHT22;10495;50.922;4.760;2023-03-24T16:42:59;15.30;68.70
20672;DHT22;10495;50.922;4.760;2023-03-24T16:45:27;15.40;69.20
20672;DHT22;10495;50.922;4.760;2023-03-24T16:47:54;15.40;69.40
20672;DHT22;10495;50.922;4.760;2023-03-24T16:50:32;15.50;69.80
20672;DHT22;10495;50.922;4.760;2023-03-24T16:53:00;15.60;70.20
20672;DHT22;10495;50.922;4.760;2023-03-24T16:55:26;15.30;70.90
20672;DHT22;10495;50.922;4.760;2023-03-24T16:57:52;15.10;71.60
20672;DHT22;10495;50.922;4.760;2023-03-24T17:00:18;15.30;72.00
20672;DHT22;10495;50.922;4.760;2023-03-24T17:02:43;15.10;71.40
20672;DHT22;10495;50.922;4.760;2023-03-24T17:05:34;14.90;72.00
20672;DHT22;10495;50.922;4.760;2023-03-24T17:08:01;14.90;72.10
20672;DHT22;10495;50.922;4.760;2023-03-24T17:10:27;15.20;71.90
20672;DHT22;10495;50.922;4.760;2023-03-24T17:12:56;15.20;71.20
20672;DHT22;10495;50.922;4.760;2023-03-24T17:15:24;15.00;71.70
20672;DHT22;10495;50.922;4.760;2023-03-24T17:17:50;14.90;72.00
20672;DHT22;10495;50.922;4.760;2023-03-24T17:20:16;14.90;72.10
20672;DHT22;10495;50.922;4.760;2023-03-24T17:22:44;14.80;73.70
20672;DHT22;10495;50.922;4.760;2023-03-24T17:25:17;14.90;74.10
20672;DHT22;10495;50.922;4.760;2023-03-24T17:27:43;15.10;74.20
20672;DHT22;10495;50.922;4.760;2023-03-24T17:30:15;15.00;75.50
20672;DHT22;10495;50.922;4.760;2023-03-24T17:32:41;14.70;77.00
20672;DHT22;10495;50.922;4.760;2023-03-24T17:35:10;14.40;77.20
20672;DHT22;10495;50.922;4.760;2023-03-24T17:37:36;14.00;79.10
20672;DHT22;10495;50.922;4.760;2023-03-24T17:40:02;13.80;79.30
20672;DHT22;10495;50.922;4.760;2023-03-24T17:42:34;13.20;81.50
20672;DHT22;10495;50.922;4.760;2023-03-24T17:45:00;13.10;82.80
20672;DHT22;10495;50.922;4.760;2023-03-24T17:47:26;13.10;82.50
20672;DHT22;10495;50.922;4.760;2023-03-24T17:49:51;13.10;82.70
20672;DHT22;10495;50.922;4.760;2023-03-24T17:52:17;13.10;82.90
20672;DHT22;10495;50.922;4.760;2023-03-24T17:54:42;13.00;82.60
20672;DHT22;10495;50.922;4.760;2023-03-24T17:57:08;12.70;82.80
20672;DHT22;10495;50.922;4.760;2023-03-24T17:59:34;12.40;83.20
20672;DHT22;10495;50.922;4.760;2023-03-24T18:02:01;12.40;83.30
20672;DHT22;10495;50.922;4.760;2023-03-24T18:04:27;12.30;83.00
20672;DHT22;10495;50.922;4.760;2023-03-24T18:06:53;12.40;82.80
20672;DHT22;10495;50.922;4.760;2023-03-24T18:09:19;12.50;82.00
20672;DHT22;10495;50.922;4.760;2023-03-24T18:11:46;12.60;82.10
20672;DHT22;10495;50.922;4.760;2023-03-24T18:14:12;12.50;81.90
20672;DHT22;10495;50.922;4.760;2023-03-24T18:16:37;12.40;82.20
20672;DHT22;10495;50.922;4.760;2023-03-24T18:19:04;12.50;81.90
20672;DHT22;10495;50.922;4.760;2023-03-24T18:21:31;12.30;82.20
20672;DHT22;10495;50.922;4.760;2023-03-24T18:23:56;12.20;83.20